Mount Vernon, Arkansas
Current Conditions -  °F | °C
As of 10:58 AM on Thursday 30 Oct 2014 (Local Time) from KLRF Reporting Station
Few Clouds Few Clouds  
Wind Chill: 16°   Ceiling: Unl
Heat Index: 16°   Visibility: 10mi
Dew Point:   Wind: 1mph
Humidity: 54%   Direction: NA
Pressure: 30.16"   Gusts: NA
Location:  35.23°N, 92.12°W
Report Text: KLRF 301558Z AUTO VRB01KT 10SM FEW170 16/07 A3016 RMK AO2 SLP216 T01590065
Loading
Personal Weather Stations






























Interactive Weather Map
Tropical Storm Tracking
New forecast layout! Learn more

10-Day Weather Forecast

Advertisements
Track Severe Weather on mobile